Time;durP1;ratioP1;P1;durP2;ratioP2;P2;SDS_P1;SDS_P2;PMS_P1;PMS_P2;Temp;Humidity;BMP_temperature;BMP_pressure;BME280_temperature;BME280_humidity;BME280_pressure;Samples;Min_cycle;Max_cycle;Signal;HPM_P1;HPM_P2
2023/04/10 00:24:36;;;;;;;27.13;13.63;;;;;;;;;;2037087;29;20158;-84
2023/04/10 00:26:09;;;;;;;65.60;19.98;;;;;;;;;;2025874;29;20110;-84
2023/04/10 00:27:35;;;;;;;15.95;10.82;;;;;;;;;;2044507;29;20031;-83
2023/04/10 00:29:07;;;;;;;18.50;11.40;;;;;;;;;;2026079;29;20429;-83
2023/04/10 00:32:36;;;;;;;;;;;;;;;;;;;;;
2023/04/10 00:34:00;;;;;;;;;;;;;;;;;;2032933;29;20043;-84
2023/04/10 00:38:27;;;;;;;;;;;;;;;;;;;;;
2023/04/10 01:01:23;;;;;;;19.73;11.95;;;;;;;;;;2035366;29;20056;-69
2023/04/10 01:02:44;;;;;;;24.27;13.35;;;;;;;;;;2038587;29;20048;-69
2023/04/10 01:04:07;;;;;;;21.17;13.43;;;;;;;;;;2039550;29;20047;-69
2023/04/10 01:05:33;;;;;;;20.55;12.07;;;;;;;;;;2036244;29;20182;-69
2023/04/10 01:07:14;;;;;;;21.58;12.55;;;;;;;;;;2037951;28;20051;-69
2023/04/10 01:08:43;;;;;;;22.08;13.65;;;;;;;;;;2034898;29;20132;-69
2023/04/10 01:10:16;;;;;;;20.48;12.45;;;;;;;;;;2036132;29;20032;-69
2023/04/10 01:11:37;;;;;;;24.25;13.63;;;;;;;;;;2032789;29;20044;-69
2023/04/10 01:13:11;;;;;;;20.08;12.50;;;;;;;;;;2038247;29;20501;-69
2023/04/10 01:14:44;;;;;;;23.92;12.88;;;;;;;;;;2036134;29;20040;-69
2023/04/10 01:16:13;;;;;;;21.05;12.85;;;;;;;;;;2035700;29;20122;-68
2023/04/10 01:17:42;;;;;;;21.27;13.10;;;;;;;;;;2034452;29;20048;-68
2023/04/10 01:19:09;;;;;;;28.98;13.98;;;;;;;;;;2035088;29;20035;-68
2023/04/10 01:20:31;;;;;;;22.80;12.95;;;;;;;;;;2037119;29;20083;-68
2023/04/10 01:21:53;;;;;;;22.95;13.23;;;;;;;;;;2033389;29;20733;-69
2023/04/10 01:23:35;;;;;;;26.23;13.05;;;;;;;;;;2031824;29;20039;-69
2023/04/10 01:25:05;;;;;;;23.92;13.65;;;;;;;;;;2035552;29;20040;-69
2023/04/10 01:26:46;;;;;;;22.83;13.93;;;;;;;;;;2038730;28;20103;-68
2023/04/10 01:28:23;;;;;;;20.63;12.20;;;;;;;;;;2036090;29;20040;-68
2023/04/10 01:29:46;;;;;;;22.92;13.30;;;;;;;;;;2036716;29;20048;-68
2023/04/10 01:31:09;;;;;;;23.98;12.82;;;;;;;;;;2036172;29;20036;-68
2023/04/10 01:32:32;;;;;;;20.33;12.80;;;;;;;;;;2038381;29;20083;-69
2023/04/10 01:33:57;;;;;;;21.80;13.27;;;;;;;;;;2035553;29;20087;-69
2023/04/10 01:35:18;;;;;;;26.98;14.27;;;;;;;;;;2034770;29;20055;-68
2023/04/10 01:36:44;;;;;;;21.55;12.50;;;;;;;;;;2036877;28;20028;-69
2023/04/10 01:38:06;;;;;;;18.90;12.45;;;;;;;;;;2032237;29;20440;-69
2023/04/10 01:39:27;;;;;;;16.77;12.13;;;;;;;;;;2039025;29;20520;-68
2023/04/10 01:40:51;;;;;;;23.83;12.27;;;;;;;;;;2034774;29;20070;-68
2023/04/10 01:42:13;;;;;;;27.08;13.40;;;;;;;;;;2034597;29;20392;-68
2023/04/10 01:43:34;;;;;;;;;;;;;;;;;;2032837;29;20073;-69
2023/04/10 01:44:56;;;;;;;22.80;13.40;;;;;;;;;;2033386;29;19922;-68
2023/04/10 01:46:19;;;;;;;25.58;14.38;;;;;;;;;;2036864;29;20447;-69
2023/04/10 01:47:40;;;;;;;20.30;11.63;;;;;;;;;;2036479;29;20036;-69
2023/04/10 01:49:02;;;;;;;26.30;13.52;;;;;;;;;;2033035;29;20031;-68
2023/04/10 01:50:23;;;;;;;21.67;13.15;;;;;;;;;;2038360;29;20082;-69
2023/04/10 01:51:45;;;;;;;24.83;13.98;;;;;;;;;;2035646;29;20059;-69
2023/04/10 01:53:06;;;;;;;23.00;12.70;;;;;;;;;;2037126;29;20102;-68
2023/04/10 01:54:27;;;;;;;21.70;12.85;;;;;;;;;;2032441;29;20043;-69
2023/04/10 01:55:49;;;;;;;23.55;13.45;;;;;;;;;;2036069;29;20116;-68
2023/04/10 01:57:12;;;;;;;19.48;12.93;;;;;;;;;;2032606;28;20518;-68
2023/04/10 01:58:34;;;;;;;24.85;13.68;;;;;;;;;;2032665;29;20471;-68
2023/04/10 01:59:55;;;;;;;21.67;13.18;;;;;;;;;;2032870;29;20036;-68
2023/04/10 02:01:19;;;;;;;24.27;13.88;;;;;;;;;;2038056;28;20110;-68
2023/04/10 02:02:41;;;;;;;26.05;14.90;;;;;;;;;;2031819;29;20136;-68
2023/04/10 02:04:02;;;;;;;22.50;13.40;;;;;;;;;;2038119;28;20089;-68
2023/04/10 02:05:27;;;;;;;27.52;14.95;;;;;;;;;;2036740;29;20463;-69
2023/04/10 02:06:52;;;;;;;23.60;13.63;;;;;;;;;;2035237;28;20424;-68
2023/04/10 02:08:16;;;;;;;25.80;14.25;;;;;;;;;;2036732;29;20027;-74
2023/04/10 02:10:03;;;;;;;23.35;13.52;;;;;;;;;;2035128;29;20023;-75
2023/04/10 02:11:29;;;;;;;21.33;12.88;;;;;;;;;;2027484;29;20071;-75
2023/04/10 02:13:00;;;;;;;19.70;12.65;;;;;;;;;;2034985;29;20063;-75
2023/04/10 02:14:22;;;;;;;21.50;12.52;;;;;;;;;;2036658;29;20044;-75
2023/04/10 02:15:45;;;;;;;21.50;13.07;;;;;;;;;;2037630;29;20119;-74
2023/04/10 02:17:07;;;;;;;21.48;13.40;;;;;;;;;;2033061;28;20526;-75
2023/04/10 02:18:29;;;;;;;24.95;13.43;;;;;;;;;;2035513;29;20044;-75
2023/04/10 02:19:50;;;;;;;;;;;;;;;;;;2035665;29;20502;-74
2023/04/10 02:21:11;;;;;;;21.10;12.70;;;;;;;;;;2039295;29;19911;-74
2023/04/10 02:22:32;;;;;;;20.48;12.57;;;;;;;;;;2032792;29;20207;-75
2023/04/10 02:23:55;;;;;;;21.52;13.38;;;;;;;;;;2033905;29;20086;-75
2023/04/10 02:25:16;;;;;;;20.88;12.65;;;;;;;;;;2033716;29;20352;-74
2023/04/10 02:26:50;;;;;;;26.02;14.93;;;;;;;;;;2035080;29;20087;-74
2023/04/10 02:28:11;;;;;;;20.92;13.57;;;;;;;;;;2034490;29;20436;-74
2023/04/10 02:29:31;;;;;;;26.90;14.73;;;;;;;;;;2033463;29;20175;-75
2023/04/10 02:30:52;;;;;;;24.40;13.27;;;;;;;;;;2035566;29;20471;-75
2023/04/10 02:32:16;;;;;;;22.63;12.82;;;;;;;;;;2034998;29;20031;-75
2023/04/10 02:33:37;;;;;;;22.98;14.38;;;;;;;;;;2036613;29;20492;-75
2023/04/10 02:34:58;;;;;;;28.98;14.95;;;;;;;;;;2033597;29;20080;-74
2023/04/10 02:36:18;;;;;;;26.05;14.20;;;;;;;;;;2033964;29;20084;-75
2023/04/10 02:37:41;;;;;;;23.15;13.85;;;;;;;;;;2033564;29;20452;-75
2023/04/10 02:39:02;;;;;;;24.60;14.00;;;;;;;;;;2031615;29;20036;-75
2023/04/10 02:40:23;;;;;;;32.30;15.10;;;;;;;;;;2033316;29;20032;-75
2023/04/10 02:41:45;;;;;;;24.13;13.13;;;;;;;;;;2030539;29;20095;-75
2023/04/10 02:43:06;;;;;;;23.80;14.02;;;;;;;;;;2030290;29;20031;-74
2023/04/10 02:44:27;;;;;;;22.08;13.65;;;;;;;;;;2034843;29;20510;-75
2023/04/10 02:45:47;;;;;;;29.85;14.70;;;;;;;;;;2034906;29;20095;-75
2023/04/10 02:47:08;;;;;;;21.90;13.32;;;;;;;;;;2035117;28;20035;-76
2023/04/10 02:48:29;;;;;;;22.85;13.38;;;;;;;;;;2034465;29;20047;-75
2023/04/10 02:49:50;;;;;;;24.95;14.60;;;;;;;;;;2035553;29;20040;-74
2023/04/10 02:51:11;;;;;;;25.27;14.43;;;;;;;;;;2035615;29;20438;-73
2023/04/10 02:52:32;;;;;;;21.48;12.90;;;;;;;;;;2037757;29;20027;-75
2023/04/10 02:53:53;;;;;;;27.38;13.73;;;;;;;;;;2036152;29;20040;-75
2023/04/10 02:55:14;;;;;;;24.42;14.05;;;;;;;;;;2036648;29;20507;-75
2023/04/10 02:56:35;;;;;;;28.45;14.80;;;;;;;;;;2037401;29;20035;-75
2023/04/10 02:57:56;;;;;;;21.70;14.00;;;;;;;;;;2032659;29;20040;-74
2023/04/10 02:59:17;;;;;;;21.42;13.68;;;;;;;;;;2036346;29;20087;-75
2023/04/10 03:00:38;;;;;;;26.55;14.38;;;;;;;;;;2033098;29;20333;-75
2023/04/10 03:01:59;;;;;;;23.20;13.75;;;;;;;;;;2034417;29;20079;-75
2023/04/10 03:03:20;;;;;;;29.77;15.05;;;;;;;;;;2035504;29;20083;-75
2023/04/10 03:04:41;;;;;;;22.70;13.30;;;;;;;;;;2034861;29;20039;-75
2023/04/10 03:06:02;;;;;;;23.88;14.15;;;;;;;;;;2042598;28;20146;-75
2023/04/10 03:07:23;;;;;;;25.17;14.35;;;;;;;;;;2037360;28;20032;-75
2023/04/10 03:08:44;;;;;;;25.55;13.77;;;;;;;;;;2035365;29;20075;-74
2023/04/10 03:10:05;;;;;;;28.48;14.98;;;;;;;;;;2035908;29;20043;-75
2023/04/10 03:11:26;;;;;;;24.90;14.23;;;;;;;;;;2036863;29;20145;-74
2023/04/10 03:12:47;;;;;;;27.60;14.20;;;;;;;;;;2036922;29;20056;-75
2023/04/10 03:14:11;;;;;;;25.00;14.73;;;;;;;;;;2038995;29;20027;-75
2023/04/10 03:15:32;;;;;;;21.73;13.32;;;;;;;;;;2035499;29;20040;-75
2023/04/10 03:16:53;;;;;;;27.85;15.65;;;;;;;;;;2037904;28;20095;-75
2023/04/10 03:18:14;;;;;;;26.38;14.23;;;;;;;;;;2038466;29;20044;-75
2023/04/10 03:19:35;;;;;;;28.10;14.93;;;;;;;;;;2034779;29;20031;-74
2023/04/10 03:20:56;;;;;;;21.95;13.70;;;;;;;;;;2033914;29;20519;-75
2023/04/10 03:22:17;;;;;;;24.23;14.73;;;;;;;;;;2035373;29;20040;-75
2023/04/10 03:23:38;;;;;;;28.05;14.38;;;;;;;;;;2037140;29;20040;-74
2023/04/10 03:25:00;;;;;;;25.20;13.90;;;;;;;;;;2036176;29;20464;-75
2023/04/10 03:26:22;;;;;;;26.75;14.48;;;;;;;;;;2034980;29;20803;-75
2023/04/10 03:27:43;;;;;;;23.17;13.95;;;;;;;;;;2038734;28;20342;-74
2023/04/10 03:29:04;;;;;;;21.23;13.18;;;;;;;;;;2037033;29;20043;-75
2023/04/10 03:30:25;;;;;;;25.17;13.52;;;;;;;;;;2039373;29;20036;-75
2023/04/10 03:31:46;;;;;;;22.23;14.07;;;;;;;;;;2035208;29;20502;-74
2023/04/10 03:33:07;;;;;;;21.25;12.95;;;;;;;;;;2037542;29;20095;-75
2023/04/10 03:34:28;;;;;;;19.98;12.65;;;;;;;;;;2038031;29;20440;-75
2023/04/10 03:35:48;;;;;;;22.23;13.32;;;;;;;;;;2037871;29;20112;-75
2023/04/10 03:37:09;;;;;;;20.63;13.02;;;;;;;;;;2036930;28;20055;-74
2023/04/10 03:38:30;;;;;;;19.90;12.90;;;;;;;;;;2039531;29;20471;-75
2023/04/10 03:39:51;;;;;;;23.98;13.38;;;;;;;;;;2036756;29;20102;-74
2023/04/10 03:41:12;;;;;;;23.40;12.63;;;;;;;;;;2034816;29;20043;-75
2023/04/10 03:42:33;;;;;;;23.55;13.35;;;;;;;;;;2037970;29;20047;-74
2023/04/10 03:43:54;;;;;;;21.25;12.65;;;;;;;;;;2037700;29;20127;-75
2023/04/10 03:45:15;;;;;;;21.40;13.55;;;;;;;;;;2034275;29;21583;-75
2023/04/10 03:46:36;;;;;;;29.35;13.48;;;;;;;;;;2033397;29;20521;-74
2023/04/10 03:47:57;;;;;;;23.88;13.70;;;;;;;;;;2033129;29;20449;-74
2023/04/10 03:49:18;;;;;;;22.42;12.45;;;;;;;;;;2037941;29;20451;-74
2023/04/10 03:50:39;;;;;;;24.50;14.27;;;;;;;;;;2036461;29;20036;-75
2023/04/10 03:52:00;;;;;;;22.20;13.40;;;;;;;;;;2034025;29;20032;-74
2023/04/10 03:53:21;;;;;;;23.80;13.68;;;;;;;;;;2033125;29;20095;-75
2023/04/10 03:54:42;;;;;;;20.17;12.15;;;;;;;;;;2037247;29;20079;-75
2023/04/10 03:56:03;;;;;;;23.77;13.55;;;;;;;;;;2033992;29;20095;-75
2023/04/10 03:57:24;;;;;;;19.65;12.02;;;;;;;;;;2036816;28;20048;-75
2023/04/10 03:58:44;;;;;;;22.58;13.35;;;;;;;;;;2034120;29;20743;-75
2023/04/10 04:00:06;;;;;;;17.55;11.90;;;;;;;;;;2042386;29;20031;-75
2023/04/10 04:01:26;;;;;;;20.25;12.50;;;;;;;;;;2040497;28;20040;-75
2023/04/10 04:02:50;;;;;;;20.90;13.02;;;;;;;;;;2038137;29;20048;-75
2023/04/10 04:04:11;;;;;;;26.23;13.68;;;;;;;;;;2036556;29;20064;-75
2023/04/10 04:05:32;;;;;;;21.40;13.43;;;;;;;;;;2031942;29;20760;-74
2023/04/10 04:06:53;;;;;;;24.58;13.10;;;;;;;;;;2033224;29;20036;-74
2023/04/10 04:08:14;;;;;;;24.23;13.77;;;;;;;;;;2034701;28;20079;-74
2023/04/10 04:09:35;;;;;;;22.58;13.00;;;;;;;;;;2034361;29;20479;-74
2023/04/10 04:10:56;;;;;;;21.98;13.60;;;;;;;;;;2032501;29;20047;-74
2023/04/10 04:12:17;;;;;;;24.13;13.98;;;;;;;;;;2037145;29;20067;-75
2023/04/10 04:13:38;;;;;;;22.58;13.20;;;;;;;;;;2035280;29;20052;-74
2023/04/10 04:14:59;;;;;;;24.63;13.50;;;;;;;;;;2033850;29;20036;-74
2023/04/10 04:16:19;;;;;;;27.58;13.65;;;;;;;;;;2034076;29;20087;-74
2023/04/10 04:17:40;;;;;;;21.20;13.32;;;;;;;;;;2033937;28;20056;-75
2023/04/10 04:19:01;;;;;;;24.02;13.73;;;;;;;;;;2034057;29;20044;-74
2023/04/10 04:20:22;;;;;;;18.88;11.05;;;;;;;;;;2034562;29;20407;-74
2023/04/10 04:21:43;;;;;;;23.88;12.65;;;;;;;;;;2038202;28;20051;-74
2023/04/10 04:23:04;;;;;;;22.08;12.95;;;;;;;;;;2034931;29;20036;-74
2023/04/10 04:24:25;;;;;;;22.77;13.15;;;;;;;;;;2030557;29;20040;-74
2023/04/10 04:25:46;;;;;;;17.63;11.85;;;;;;;;;;2028849;29;20032;-74
2023/04/10 04:27:07;;;;;;;23.02;13.25;;;;;;;;;;2031970;29;20040;-74
2023/04/10 04:28:27;;;;;;;21.67;12.93;;;;;;;;;;2034598;29;20853;-75
2023/04/10 04:29:48;;;;;;;22.17;13.18;;;;;;;;;;2035438;29;20048;-74
2023/04/10 04:31:10;;;;;;;25.27;13.80;;;;;;;;;;2034077;29;20495;-72
2023/04/10 04:32:30;;;;;;;24.35;13.80;;;;;;;;;;2036257;29;20039;-74
2023/04/10 04:33:51;;;;;;;20.98;13.00;;;;;;;;;;2033327;29;20556;-74
2023/04/10 04:35:12;;;;;;;22.60;13.88;;;;;;;;;;2033857;29;20039;-74
2023/04/10 04:36:33;;;;;;;22.02;12.95;;;;;;;;;;2037887;29;20063;-74
2023/04/10 04:37:54;;;;;;;26.83;14.95;;;;;;;;;;2034917;28;20039;-74
2023/04/10 04:39:15;;;;;;;25.85;14.40;;;;;;;;;;2037677;29;20093;-74
2023/04/10 04:40:36;;;;;;;26.08;13.93;;;;;;;;;;2036576;29;20087;-74
2023/04/10 04:41:57;;;;;;;23.55;14.32;;;;;;;;;;2037510;29;20031;-74
2023/04/10 04:43:18;;;;;;;24.95;14.60;;;;;;;;;;2036884;29;20027;-74
2023/04/10 04:44:38;;;;;;;26.50;14.65;;;;;;;;;;2034916;29;20087;-74
2023/04/10 04:45:59;;;;;;;21.88;13.10;;;;;;;;;;2038476;29;20032;-74
2023/04/10 04:47:21;;;;;;;25.52;15.07;;;;;;;;;;2038696;28;20028;-74
2023/04/10 04:48:42;;;;;;;28.60;14.93;;;;;;;;;;2036800;29;20032;-74
2023/04/10 04:50:03;;;;;;;22.08;13.93;;;;;;;;;;2033562;29;20044;-73
2023/04/10 04:51:24;;;;;;;26.73;14.30;;;;;;;;;;2036024;29;20031;-74
2023/04/10 04:52:45;;;;;;;19.67;13.07;;;;;;;;;;2038622;29;20584;-74
2023/04/10 04:54:06;;;;;;;20.70;13.18;;;;;;;;;;2037246;29;20047;-74
2023/04/10 04:55:27;;;;;;;24.80;14.57;;;;;;;;;;2038382;29;20068;-74
2023/04/10 04:56:48;;;;;;;25.83;14.18;;;;;;;;;;2036742;29;20040;-75
2023/04/10 04:58:09;;;;;;;21.30;13.55;;;;;;;;;;2038294;28;20044;-74
2023/04/10 04:59:29;;;;;;;22.80;14.10;;;;;;;;;;2039807;29;20036;-74
2023/04/10 05:00:51;;;;;;;24.20;14.68;;;;;;;;;;2036007;29;20063;-74
2023/04/10 05:02:11;;;;;;;23.15;13.63;;;;;;;;;;2035277;29;20420;-74
2023/04/10 05:03:32;;;;;;;21.85;12.70;;;;;;;;;;2037710;29;20043;-74
2023/04/10 05:04:53;;;;;;;29.08;15.55;;;;;;;;;;2036192;29;20032;-74
2023/04/10 05:06:14;;;;;;;23.23;13.95;;;;;;;;;;2042942;29;20447;-74
2023/04/10 05:07:35;;;;;;;20.50;13.48;;;;;;;;;;2035265;28;20040;-74
2023/04/10 05:08:56;;;;;;;21.98;13.75;;;;;;;;;;2035601;29;20023;-74
2023/04/10 05:10:17;;;;;;;22.08;13.75;;;;;;;;;;2035578;29;20036;-74
2023/04/10 05:11:38;;;;;;;26.80;14.00;;;;;;;;;;2036386;29;20035;-74
2023/04/10 05:12:59;;;;;;;25.75;14.70;;;;;;;;;;2042184;29;20488;-74
2023/04/10 05:14:21;;;;;;;20.42;12.77;;;;;;;;;;2037465;29;20031;-74
2023/04/10 05:15:42;;;;;;;25.25;14.18;;;;;;;;;;2034238;29;20036;-74
2023/04/10 05:17:03;;;;;;;21.90;13.37;;;;;;;;;;2037785;29;20035;-74
2023/04/10 05:18:24;;;;;;;21.33;14.05;;;;;;;;;;2038619;29;20519;-74
2023/04/10 05:19:45;;;;;;;26.88;14.88;;;;;;;;;;2039271;29;20035;-74
2023/04/10 05:21:06;;;;;;;27.98;14.85;;;;;;;;;;2036076;29;20076;-74
2023/04/10 05:22:27;;;;;;;26.20;13.52;;;;;;;;;;2038732;29;20410;-74
2023/04/10 05:23:48;;;;;;;26.70;14.23;;;;;;;;;;2036017;29;20099;-74
2023/04/10 05:25:09;;;;;;;23.73;14.18;;;;;;;;;;2037610;29;20044;-74
2023/04/10 05:26:30;;;;;;;31.58;15.52;;;;;;;;;;2038348;29;20028;-74
2023/04/10 05:27:51;;;;;;;23.48;13.20;;;;;;;;;;2038651;28;20035;-74
2023/04/10 05:29:11;;;;;;;24.65;14.27;;;;;;;;;;2038545;29;20083;-74
2023/04/10 05:30:32;;;;;;;21.45;12.57;;;;;;;;;;2034864;29;20046;-74
2023/04/10 05:31:53;;;;;;;25.95;14.75;;;;;;;;;;2037702;29;20044;-75
2023/04/10 05:33:14;;;;;;;24.08;14.15;;;;;;;;;;2036185;29;20040;-74
2023/04/10 05:34:35;;;;;;;22.55;13.80;;;;;;;;;;2031475;29;20035;-74
2023/04/10 05:35:56;;;;;;;26.50;15.05;;;;;;;;;;2036399;29;20518;-74
2023/04/10 05:37:17;;;;;;;25.92;14.82;;;;;;;;;;2038715;29;20032;-74
2023/04/10 05:38:38;;;;;;;28.35;14.88;;;;;;;;;;2036172;29;20566;-74
2023/04/10 05:39:59;;;;;;;28.00;14.15;;;;;;;;;;2035209;29;20031;-74
2023/04/10 05:41:20;;;;;;;27.08;14.40;;;;;;;;;;2037226;29;20407;-73
2023/04/10 05:42:41;;;;;;;22.38;14.35;;;;;;;;;;2034936;29;20036;-74
2023/04/10 05:44:02;;;;;;;25.25;14.43;;;;;;;;;;2034240;29;20079;-74
2023/04/10 05:45:23;;;;;;;24.15;13.95;;;;;;;;;;2037196;29;20398;-74
2023/04/10 05:46:44;;;;;;;20.08;12.57;;;;;;;;;;2040009;29;20028;-75
2023/04/10 05:48:05;;;;;;;22.63;13.43;;;;;;;;;;2038649;28;20179;-75
2023/04/10 05:49:26;;;;;;;19.48;12.73;;;;;;;;;;2037338;29;20036;-74
2023/04/10 05:50:46;;;;;;;23.67;14.55;;;;;;;;;;2038860;29;20557;-75
2023/04/10 05:52:07;;;;;;;18.90;13.27;;;;;;;;;;2037920;29;20044;-75
2023/04/10 05:53:30;;;;;;;26.20;13.85;;;;;;;;;;2039203;29;20075;-75
2023/04/10 05:54:51;;;;;;;;;;;;;;;;;;2037984;29;20079;-75
2023/04/10 05:56:11;;;;;;;23.50;13.25;;;;;;;;;;2038582;29;20346;-74
2023/04/10 05:57:32;;;;;;;20.30;13.45;;;;;;;;;;2038422;29;20027;-74
2023/04/10 05:58:53;;;;;;;25.60;14.23;;;;;;;;;;2037565;29;20040;-74
2023/04/10 06:00:16;;;;;;;21.98;12.73;;;;;;;;;;2033555;29;20441;-74
2023/04/10 06:01:38;;;;;;;22.05;12.70;;;;;;;;;;2038705;29;20036;-74
2023/04/10 06:02:59;;;;;;;21.92;13.55;;;;;;;;;;2039725;28;20067;-74
2023/04/10 06:04:20;;;;;;;25.25;13.02;;;;;;;;;;2036389;29;20039;-74
2023/04/10 06:05:41;;;;;;;21.38;13.05;;;;;;;;;;2036430;29;20028;-74
2023/04/10 06:07:02;;;;;;;22.13;13.48;;;;;;;;;;2035339;29;20104;-74
2023/04/10 06:08:23;;;;;;;22.83;12.40;;;;;;;;;;2037455;28;20019;-74
2023/04/10 06:09:44;;;;;;;29.20;14.57;;;;;;;;;;2033970;29;20106;-74
2023/04/10 06:11:05;;;;;;;24.17;15.18;;;;;;;;;;2036705;29;20032;-74
2023/04/10 06:12:25;;;;;;;22.13;12.98;;;;;;;;;;2037764;29;20032;-75
2023/04/10 06:13:46;;;;;;;22.08;13.25;;;;;;;;;;2031844;29;20040;-75
2023/04/10 06:15:07;;;;;;;19.42;12.23;;;;;;;;;;2037428;29;20043;-74
2023/04/10 06:16:28;;;;;;;21.70;13.85;;;;;;;;;;2039601;29;20071;-75
2023/04/10 06:17:49;;;;;;;21.20;12.70;;;;;;;;;;2033920;28;20052;-74
2023/04/10 06:19:10;;;;;;;18.38;12.65;;;;;;;;;;2037973;29;20394;-74
2023/04/10 06:20:31;;;;;;;22.73;13.95;;;;;;;;;;2036878;29;20087;-74
2023/04/10 06:21:52;;;;;;;20.25;13.38;;;;;;;;;;2037154;29;20051;-74
2023/04/10 06:23:13;;;;;;;21.42;13.55;;;;;;;;;;2037939;29;20481;-75
2023/04/10 06:24:34;;;;;;;21.88;13.30;;;;;;;;;;2037502;29;20035;-74
2023/04/10 06:25:55;;;;;;;20.27;11.93;;;;;;;;;;2037414;29;20134;-74
2023/04/10 06:27:16;;;;;;;18.25;12.45;;;;;;;;;;2039997;29;20039;-74
2023/04/10 06:28:37;;;;;;;24.42;14.30;;;;;;;;;;2036280;28;20039;-74
2023/04/10 06:29:57;;;;;;;23.95;13.80;;;;;;;;;;2037939;29;20043;-75
2023/04/10 06:31:20;;;;;;;21.80;13.27;;;;;;;;;;2037126;29;20082;-74
2023/04/10 06:32:41;;;;;;;21.55;13.30;;;;;;;;;;2037219;29;21393;-74
2023/04/10 06:34:02;;;;;;;21.52;13.13;;;;;;;;;;2036355;29;20346;-74
2023/04/10 06:35:23;;;;;;;23.33;12.52;;;;;;;;;;2032935;29;20035;-74
2023/04/10 06:36:44;;;;;;;19.83;12.90;;;;;;;;;;2037034;29;20052;-74
2023/04/10 06:38:06;;;;;;;21.80;12.98;;;;;;;;;;2032780;29;20044;-75
2023/04/10 06:39:26;;;;;;;19.80;12.70;;;;;;;;;;2031482;29;20099;-74
2023/04/10 06:40:47;;;;;;;24.15;14.45;;;;;;;;;;2036362;29;20485;-74
2023/04/10 06:42:08;;;;;;;20.35;12.65;;;;;;;;;;2037598;29;20095;-74
2023/04/10 06:43:31;;;;;;;19.77;12.90;;;;;;;;;;2036906;29;20035;-74
2023/04/10 06:44:51;;;;;;;;;;;;;;;;;;2036464;29;20036;-75
2023/04/10 06:46:13;;;;;;;23.60;13.57;;;;;;;;;;2038480;29;19918;-74
2023/04/10 06:47:34;;;;;;;23.25;13.65;;;;;;;;;;2038904;29;20031;-74
2023/04/10 06:48:55;;;;;;;24.77;13.38;;;;;;;;;;2036780;29;20075;-75
2023/04/10 06:50:16;;;;;;;22.42;13.45;;;;;;;;;;2038517;29;20035;-74
2023/04/10 06:51:36;;;;;;;22.10;12.55;;;;;;;;;;2041674;29;20107;-74
2023/04/10 06:52:58;;;;;;;23.20;13.32;;;;;;;;;;2034460;29;20032;-74
2023/04/10 06:54:19;;;;;;;23.50;14.45;;;;;;;;;;2032838;29;20032;-75
2023/04/10 06:55:40;;;;;;;20.70;13.38;;;;;;;;;;2035128;29;20443;-74
2023/04/10 06:57:01;;;;;;;21.75;13.20;;;;;;;;;;2040427;29;20047;-74
2023/04/10 06:58:23;;;;;;;20.85;13.43;;;;;;;;;;2036371;29;20118;-74
2023/04/10 06:59:44;;;;;;;19.33;13.23;;;;;;;;;;2036360;29;20071;-74
2023/04/10 07:01:05;;;;;;;26.40;13.45;;;;;;;;;;2041220;29;20031;-74
2023/04/10 07:02:26;;;;;;;19.85;12.82;;;;;;;;;;2036703;29;20054;-75
2023/04/10 07:03:47;;;;;;;21.85;13.50;;;;;;;;;;2037957;29;20442;-74
2023/04/10 07:05:08;;;;;;;20.58;12.35;;;;;;;;;;2038721;29;20032;-73
2023/04/10 07:06:28;;;;;;;17.52;12.65;;;;;;;;;;2041208;29;20028;-74
2023/04/10 07:07:49;;;;;;;20.42;12.70;;;;;;;;;;2037432;29;20043;-74
2023/04/10 07:09:10;;;;;;;17.25;11.35;;;;;;;;;;2041345;29;20043;-75
2023/04/10 07:10:31;;;;;;;18.23;11.63;;;;;;;;;;2037470;29;20036;-75
2023/04/10 07:11:52;;;;;;;17.95;12.25;;;;;;;;;;2038575;29;20036;-74
2023/04/10 07:13:13;;;;;;;21.50;12.93;;;;;;;;;;2034760;29;20423;-74
2023/04/10 07:14:34;;;;;;;20.20;13.48;;;;;;;;;;2034902;29;20028;-75
2023/04/10 07:15:55;;;;;;;17.70;12.30;;;;;;;;;;2039640;29;20122;-74
2023/04/10 07:17:16;;;;;;;22.38;12.52;;;;;;;;;;2040202;29;20036;-74
2023/04/10 07:18:37;;;;;;;19.40;13.07;;;;;;;;;;2038334;28;20043;-75
2023/04/10 07:19:58;;;;;;;21.63;13.18;;;;;;;;;;2037260;29;20043;-74
2023/04/10 07:21:19;;;;;;;20.70;12.50;;;;;;;;;;2043588;29;20479;-75
2023/04/10 07:22:40;;;;;;;16.92;11.40;;;;;;;;;;2034603;29;20040;-74
2023/04/10 07:24:01;;;;;;;19.55;12.32;;;;;;;;;;2033968;29;20067;-74
2023/04/10 07:25:22;;;;;;;18.48;12.52;;;;;;;;;;2038777;29;20033;-74
2023/04/10 07:26:44;;;;;;;20.23;13.00;;;;;;;;;;2036652;29;20028;-74
2023/04/10 07:28:05;;;;;;;16.77;11.57;;;;;;;;;;2034354;28;20024;-74
2023/04/10 07:29:26;;;;;;;20.70;13.43;;;;;;;;;;2038513;29;20538;-75
2023/04/10 07:30:47;;;;;;;21.55;12.70;;;;;;;;;;2039034;29;20066;-74
2023/04/10 07:32:07;;;;;;;21.42;12.80;;;;;;;;;;2041536;29;20035;-74
2023/04/10 07:33:28;;;;;;;18.42;12.00;;;;;;;;;;2043571;29;20043;-74
2023/04/10 07:34:49;;;;;;;20.48;12.57;;;;;;;;;;2038702;29;20422;-74
2023/04/10 07:36:10;;;;;;;16.70;10.75;;;;;;;;;;2035798;29;20031;-74
2023/04/10 07:37:31;;;;;;;20.33;12.80;;;;;;;;;;2039367;29;20039;-74
2023/04/10 07:38:52;;;;;;;22.38;13.85;;;;;;;;;;2031200;29;20044;-75
2023/04/10 07:40:13;;;;;;;19.83;11.88;;;;;;;;;;2033346;29;20028;-75
2023/04/10 07:41:34;;;;;;;19.20;11.80;;;;;;;;;;2041795;28;20396;-75
2023/04/10 07:42:55;;;;;;;20.55;13.65;;;;;;;;;;2034919;29;20039;-75
2023/04/10 07:44:16;;;;;;;16.13;10.93;;;;;;;;;;2039801;29;20048;-75
2023/04/10 07:45:37;;;;;;;20.20;11.68;;;;;;;;;;2041312;29;20019;-74
2023/04/10 07:46:58;;;;;;;19.75;11.75;;;;;;;;;;2037335;29;20048;-75
2023/04/10 07:48:19;;;;;;;20.10;11.80;;;;;;;;;;2035700;28;20031;-74
2023/04/10 07:49:40;;;;;;;22.42;12.13;;;;;;;;;;2039734;29;20040;-74
2023/04/10 07:51:01;;;;;;;20.08;12.27;;;;;;;;;;2041203;29;20392;-75
2023/04/10 07:52:22;;;;;;;17.17;11.98;;;;;;;;;;2039875;29;20034;-75
2023/04/10 07:53:43;;;;;;;20.45;12.38;;;;;;;;;;2040031;29;20031;-74
2023/04/10 07:55:04;;;;;;;17.05;10.65;;;;;;;;;;2034569;29;20043;-75
2023/04/10 07:56:25;;;;;;;19.83;12.15;;;;;;;;;;2039736;29;20036;-74
2023/04/10 07:57:46;;;;;;;17.55;11.52;;;;;;;;;;2038966;29;20582;-75
2023/04/10 07:59:07;;;;;;;16.77;10.88;;;;;;;;;;2040201;29;20111;-74
2023/04/10 08:00:28;;;;;;;20.85;10.98;;;;;;;;;;2035819;29;20031;-74
2023/04/10 08:01:49;;;;;;;21.50;12.02;;;;;;;;;;2038309;29;20056;-74
2023/04/10 08:03:10;;;;;;;19.85;11.63;;;;;;;;;;2036700;29;20039;-74
2023/04/10 08:04:31;;;;;;;19.80;12.35;;;;;;;;;;2039595;29;20426;-75
2023/04/10 08:05:52;;;;;;;16.65;10.75;;;;;;;;;;2032261;29;20039;-75
2023/04/10 08:07:13;;;;;;;16.42;11.07;;;;;;;;;;2039435;29;20055;-75
2023/04/10 08:08:35;;;;;;;17.50;10.93;;;;;;;;;;2038673;28;20514;-75
2023/04/10 08:09:56;;;;;;;16.65;10.15;;;;;;;;;;2038035;29;20040;-74
2023/04/10 08:11:24;;;;;;;20.67;13.18;;;;;;;;;;2033181;29;20771;-74
2023/04/10 08:12:45;;;;;;;15.68;10.32;;;;;;;;;;2032775;29;20044;-75
2023/04/10 08:14:06;;;;;;;15.30;9.65;;;;;;;;;;2033558;29;20119;-74
2023/04/10 08:15:27;;;;;;;15.90;8.95;;;;;;;;;;2037301;29;20124;-75
2023/04/10 08:16:48;;;;;;;13.93;9.07;;;;;;;;;;2039026;29;20036;-74
2023/04/10 08:18:09;;;;;;;17.00;10.10;;;;;;;;;;2037876;28;20448;-74
2023/04/10 08:19:30;;;;;;;13.52;9.82;;;;;;;;;;2041598;29;20054;-75
2023/04/10 08:20:50;;;;;;;16.75;9.10;;;;;;;;;;2039685;29;20094;-74
2023/04/10 08:22:11;;;;;;;16.75;11.07;;;;;;;;;;2041308;29;20384;-75
2023/04/10 08:23:32;;;;;;;18.25;11.32;;;;;;;;;;2039480;29;20047;-74
2023/04/10 08:24:53;;;;;;;16.30;10.18;;;;;;;;;;2034516;29;20032;-75
2023/04/10 08:26:14;;;;;;;16.02;10.00;;;;;;;;;;2039599;29;20404;-74
2023/04/10 08:27:35;;;;;;;17.45;10.90;;;;;;;;;;2036462;29;20037;-75
2023/04/10 08:28:57;;;;;;;19.42;10.75;;;;;;;;;;2039440;28;20048;-74
2023/04/10 08:30:18;;;;;;;13.52;10.05;;;;;;;;;;2039275;29;20039;-74
2023/04/10 08:31:39;;;;;;;17.85;9.98;;;;;;;;;;2039566;29;20403;-75
2023/04/10 08:33:00;;;;;;;14.07;10.02;;;;;;;;;;2035501;29;20527;-75
2023/04/10 08:34:23;;;;;;;17.35;12.20;;;;;;;;;;2032982;29;20039;-75
2023/04/10 08:35:47;;;;;;;14.68;10.93;;;;;;;;;;2036491;29;20028;-74
2023/04/10 08:37:11;;;;;;;15.65;10.38;;;;;;;;;;2037870;29;20036;-74
2023/04/10 08:38:31;;;;;;;21.75;12.73;;;;;;;;;;2034550;28;20036;-74
2023/04/10 08:39:52;;;;;;;18.15;10.73;;;;;;;;;;2035623;29;20067;-75
2023/04/10 08:41:14;;;;;;;17.35;11.05;;;;;;;;;;2036373;29;20039;-74
2023/04/10 08:42:35;;;;;;;15.85;10.85;;;;;;;;;;2036046;29;20028;-74
2023/04/10 08:43:56;;;;;;;16.77;10.82;;;;;;;;;;2036266;29;20497;-74
2023/04/10 08:45:17;;;;;;;14.88;11.18;;;;;;;;;;2037913;29;20044;-75
2023/04/10 08:46:40;;;;;;;16.77;10.57;;;;;;;;;;2035856;29;20043;-74
2023/04/10 08:48:04;;;;;;;20.27;11.70;;;;;;;;;;2036076;29;20040;-75
2023/04/10 08:49:31;;;;;;;21.17;12.48;;;;;;;;;;2036172;29;20407;-74